createdAt,value
2022-09-25T00:00:49.072Z,18.27
2022-09-25T00:03:17.050Z,17.98
2022-09-25T00:05:45.643Z,16.42
2022-09-25T00:08:13.119Z,17.60
2022-09-25T00:10:50.746Z,18.23
2022-09-25T00:13:20.088Z,17.67
2022-09-25T00:15:55.913Z,18.52
2022-09-25T00:18:42.590Z,18.50
2022-09-25T00:21:12.632Z,17.77
2022-09-25T00:23:40.037Z,18.23
2022-09-25T00:26:08.768Z,18.65
2022-09-25T00:28:36.501Z,17.48
2022-09-25T00:31:04.722Z,17.70
2022-09-25T00:33:35.237Z,19.23
2022-09-25T00:36:09.530Z,18.85
2022-09-25T00:38:37.847Z,18.63
2022-09-25T00:41:06.377Z,18.27
2022-09-25T00:43:48.128Z,18.27
2022-09-25T00:46:27.604Z,18.38
2022-09-25T00:49:10.288Z,18.35
2022-09-25T00:51:42.257Z,18.17
2022-09-25T00:54:22.264Z,17.75
2022-09-25T00:56:51.329Z,18.98
2022-09-25T00:59:22.259Z,18.35
2022-09-25T01:01:48.838Z,17.15
2022-09-25T01:04:17.114Z,17.67
2022-09-25T01:06:44.017Z,18.15
2022-09-25T01:09:11.039Z,16.98
2022-09-25T01:11:37.481Z,16.08
2022-09-25T01:14:06.427Z,16.95
2022-09-25T01:17:02.115Z,18.35
2022-09-25T01:19:35.410Z,17.95
2022-09-25T01:22:56.275Z,17.80
2022-09-25T01:25:47.606Z,17.02
2022-09-25T01:28:31.783Z,16.50
2022-09-25T01:31:04.540Z,17.90
2022-09-25T01:33:45.164Z,18.08
2022-09-25T01:36:17.095Z,18.52
2022-09-25T01:38:52.430Z,17.67
2022-09-25T01:41:37.486Z,18.98
2022-09-25T01:44:10.007Z,19.20
2022-09-25T01:46:42.584Z,18.77
2022-09-25T01:49:17.770Z,18.92
2022-09-25T01:54:20.872Z,19.50
2022-09-25T01:56:55.858Z,20.02
2022-09-25T01:59:49.238Z,18.88
2022-09-25T02:02:21.581Z,19.50
2022-09-25T02:05:08.111Z,18.40
2022-09-25T02:07:41.115Z,18.00
2022-09-25T02:10:16.745Z,20.02
2022-09-25T02:12:50.800Z,20.27
2022-09-25T02:15:22.523Z,20.67
2022-09-25T02:18:16.676Z,20.90
2022-09-25T02:20:47.702Z,20.13
2022-09-25T02:23:48.416Z,21.17
2022-09-25T02:26:25.677Z,21.10
2022-09-25T02:28:53.786Z,21.05
2022-09-25T02:31:22.816Z,20.88
2022-09-25T02:33:50.249Z,20.02
2022-09-25T02:36:19.047Z,20.27
2022-09-25T02:38:47.191Z,20.65
2022-09-25T02:41:25.682Z,20.20
2022-09-25T02:44:03.795Z,21.42
2022-09-25T02:46:42.555Z,20.23
2022-09-25T02:49:47.786Z,20.17
2022-09-25T02:52:22.703Z,20.20
2022-09-25T02:55:06.682Z,21.80
2022-09-25T02:57:54.077Z,19.65
2022-09-25T03:00:23.401Z,17.60
2022-09-25T03:02:56.234Z,17.88
2022-09-25T03:05:25.007Z,18.70
2022-09-25T03:08:13.651Z,19.02
2022-09-25T03:10:41.165Z,18.90
2022-09-25T03:13:19.376Z,17.95
2022-09-25T03:15:51.850Z,18.77
2022-09-25T03:18:18.301Z,19.73
2022-09-25T03:20:45.181Z,16.80
2022-09-25T03:23:11.651Z,17.85
2022-09-25T03:25:38.654Z,17.77
2022-09-25T03:28:10.531Z,17.13
2022-09-25T03:30:40.994Z,17.60
2022-09-25T03:33:10.330Z,17.42
2022-09-25T03:35:38.107Z,17.13
2022-09-25T03:38:08.081Z,16.83
2022-09-25T03:40:34.710Z,17.08
2022-09-25T03:45:28.713Z,17.45
2022-09-25T03:47:55.261Z,16.33
2022-09-25T03:50:21.760Z,16.95
2022-09-25T03:52:48.230Z,16.17
2022-09-25T03:55:14.709Z,16.33
2022-09-25T03:57:41.530Z,15.35
2022-09-25T04:00:08.393Z,15.82
2022-09-25T04:02:34.933Z,15.30
2022-09-25T04:05:03.475Z,16.27
2022-09-25T04:07:30.245Z,16.48
2022-09-25T04:09:56.797Z,15.98
2022-09-25T04:12:23.196Z,16.45
2022-09-25T04:14:49.636Z,16.15
2022-09-25T04:17:16.335Z,16.58
2022-09-25T04:19:42.822Z,17.02
2022-09-25T04:22:09.587Z,15.82
2022-09-25T04:24:51.386Z,18.00
2022-09-25T04:27:23.159Z,17.17
2022-09-25T04:29:50.359Z,16.45
2022-09-25T04:32:35.790Z,17.08
2022-09-25T04:35:02.651Z,17.90
2022-09-25T04:37:29.418Z,17.88
2022-09-25T04:39:57.086Z,17.55
2022-09-25T04:42:24.718Z,17.10
2022-09-25T04:44:53.538Z,17.27
2022-09-25T04:47:21.458Z,18.65
2022-09-25T04:49:48.562Z,18.65
2022-09-25T04:52:16.675Z,18.83
2022-09-25T04:54:43.449Z,18.13
2022-09-25T04:57:27.412Z,19.48
2022-09-25T05:00:01.908Z,19.40
2022-09-25T05:02:28.774Z,18.35
2022-09-25T05:04:55.377Z,18.55
2022-09-25T05:07:21.913Z,20.92
2022-09-25T05:09:48.338Z,20.10
2022-09-25T05:12:15.672Z,20.10
2022-09-25T05:14:42.581Z,21.02
2022-09-25T05:17:11.300Z,21.33
2022-09-25T05:19:38.754Z,19.50
2022-09-25T05:22:05.369Z,19.88
2022-09-25T05:24:31.942Z,20.40
2022-09-25T05:26:58.978Z,20.13
2022-09-25T05:29:25.397Z,20.67
2022-09-25T05:31:51.984Z,20.13
2022-09-25T05:34:18.429Z,21.48
2022-09-25T05:36:44.918Z,20.52
2022-09-25T05:39:14.447Z,21.02
2022-09-25T05:41:41.466Z,19.13
2022-09-25T05:44:09.699Z,20.58
2022-09-25T05:46:37.209Z,21.38
2022-09-25T05:49:04.459Z,20.52
2022-09-25T05:51:31.463Z,20.10
2022-09-25T05:53:58.330Z,19.02
2022-09-25T05:56:24.767Z,21.15
2022-09-25T05:58:52.876Z,20.05
2022-09-25T06:01:20.056Z,21.40
2022-09-25T06:03:46.699Z,21.10
2022-09-25T06:06:13.228Z,21.30
2022-09-25T06:08:39.845Z,20.35
2022-09-25T06:11:07.719Z,19.92
2022-09-25T06:13:36.878Z,19.90
2022-09-25T06:16:05.363Z,19.33
2022-09-25T06:18:33.548Z,20.52
2022-09-25T06:21:02.474Z,19.80
2022-09-25T06:23:29.561Z,19.98
2022-09-25T06:26:04.016Z,20.55
2022-09-25T06:28:31.091Z,18.75
2022-09-25T06:31:01.524Z,19.05
2022-09-25T06:33:28.136Z,19.58
2022-09-25T06:35:54.699Z,19.08
2022-09-25T06:38:21.124Z,17.38
2022-09-25T06:40:47.793Z,16.65
2022-09-25T06:43:16.069Z,19.25
2022-09-25T06:45:43.061Z,17.15
2022-09-25T06:48:12.649Z,17.42
2022-09-25T06:50:57.056Z,17.02
2022-09-25T06:53:25.081Z,16.65
2022-09-25T06:55:51.908Z,15.75
2022-09-25T06:58:23.482Z,16.10
2022-09-25T07:00:52.019Z,16.00
2022-09-25T07:03:37.539Z,14.88
2022-09-25T07:06:06.471Z,15.00
2022-09-25T07:08:33.330Z,16.23
2022-09-25T07:11:00.065Z,15.32
2022-09-25T07:13:29.840Z,15.60
2022-09-25T07:15:58.762Z,15.45
2022-09-25T07:18:27.061Z,15.40
2022-09-25T07:20:53.871Z,15.95
2022-09-25T07:23:22.433Z,15.52
2022-09-25T07:25:49.184Z,14.70
2022-09-25T07:28:18.893Z,14.57
2022-09-25T07:30:46.585Z,14.00
2022-09-25T07:33:13.205Z,15.25
2022-09-25T07:35:39.892Z,14.02
2022-09-25T07:38:06.415Z,13.60
2022-09-25T07:40:35.494Z,14.30
2022-09-25T07:43:03.223Z,13.27
2022-09-25T07:45:29.812Z,12.77
2022-09-25T07:48:00.716Z,12.75
2022-09-25T07:50:31.886Z,12.68
2022-09-25T07:52:59.103Z,11.70
2022-09-25T07:55:28.474Z,11.57
2022-09-25T07:57:58.265Z,11.30
2022-09-25T08:00:25.009Z,10.32
2022-09-25T08:02:59.142Z,10.93
2022-09-25T08:05:27.088Z,11.07
2022-09-25T08:07:54.344Z,10.10
2022-09-25T08:10:21.768Z,9.93
2022-09-25T08:12:48.699Z,9.77
2022-09-25T08:15:15.397Z,9.30
2022-09-25T08:17:42.726Z,9.75
2022-09-25T08:20:10.209Z,8.85
2022-09-25T08:22:36.990Z,8.45
2022-09-25T08:25:03.738Z,9.25
2022-09-25T08:27:31.192Z,8.75
2022-09-25T08:29:58.732Z,8.18
2022-09-25T08:32:25.167Z,7.65
2022-09-25T08:34:51.757Z,8.10
2022-09-25T08:37:19.701Z,7.72
2022-09-25T08:39:46.178Z,7.10
2022-09-25T08:42:20.068Z,6.78
2022-09-25T08:45:21.132Z,6.80
2022-09-25T08:48:07.990Z,6.85
2022-09-25T08:50:35.262Z,6.70
2022-09-25T08:53:23.933Z,6.60
2022-09-25T08:56:09.839Z,6.03
2022-09-25T09:01:20.109Z,5.53
2022-09-25T09:04:14.018Z,6.00
2022-09-25T09:06:42.575Z,5.78
2022-09-25T09:09:20.913Z,5.82
2022-09-25T09:11:56.169Z,5.60
2022-09-25T09:17:05.219Z,4.47
2022-09-25T09:19:31.819Z,5.03
2022-09-25T09:22:10.133Z,5.65
2022-09-25T09:24:39.760Z,5.20
2022-09-25T09:27:31.385Z,5.78
2022-09-25T09:30:23.914Z,3.90
2022-09-25T09:33:02.250Z,4.28
2022-09-25T09:35:50.239Z,4.50
2022-09-25T09:38:21.899Z,4.20
2022-09-25T09:41:08.173Z,4.57
2022-09-25T09:44:00.079Z,3.53
2022-09-25T09:46:36.976Z,3.40
2022-09-25T09:49:25.213Z,2.80
2022-09-25T09:52:10.093Z,2.70
2022-09-25T09:55:09.442Z,3.20
2022-09-25T09:57:45.486Z,2.47
2022-09-25T10:00:18.061Z,2.85
2022-09-25T10:03:01.602Z,2.58
2022-09-25T10:05:33.913Z,2.78
2022-09-25T10:08:01.124Z,2.42
2022-09-25T10:10:39.406Z,2.20
2022-09-25T10:13:19.267Z,2.58
2022-09-25T10:16:11.434Z,2.00
2022-09-25T10:18:53.242Z,2.30
2022-09-25T10:21:23.489Z,1.98
2022-09-25T10:23:51.116Z,2.67
2022-09-25T10:26:26.493Z,2.22
2022-09-25T10:28:57.325Z,2.17
2022-09-25T10:31:27.906Z,2.15
2022-09-25T10:34:12.959Z,2.83
2022-09-25T10:36:43.373Z,2.38
2022-09-25T10:39:44.766Z,2.75
2022-09-25T10:42:33.497Z,2.35
2022-09-25T10:45:19.997Z,2.55
2022-09-25T10:48:15.909Z,2.67
2022-09-25T10:53:32.312Z,2.85
2022-09-25T10:56:08.482Z,2.50
2022-09-25T10:58:41.115Z,3.30
2022-09-25T11:01:13.108Z,3.35
2022-09-25T11:03:57.031Z,2.40
2022-09-25T11:06:30.370Z,2.47
2022-09-25T11:09:29.378Z,2.60
2022-09-25T11:12:13.399Z,2.72
2022-09-25T11:14:46.230Z,3.00
2022-09-25T11:17:42.073Z,2.80
2022-09-25T11:20:43.709Z,3.42
2022-09-25T11:23:23.780Z,3.03
2022-09-25T11:26:14.035Z,3.47
2022-09-25T11:28:55.485Z,3.38
2022-09-25T11:31:46.449Z,3.40
2022-09-25T11:34:39.075Z,2.63
2022-09-25T11:37:25.296Z,2.90
2022-09-25T11:40:28.682Z,2.40
2022-09-25T11:43:11.080Z,2.53
2022-09-25T11:45:44.176Z,2.60
2022-09-25T11:48:23.217Z,2.80
2022-09-25T11:50:57.464Z,3.15
2022-09-25T11:53:33.400Z,3.72
2022-09-25T11:56:12.792Z,2.72
2022-09-25T11:58:39.233Z,2.67
2022-09-25T12:01:14.945Z,2.83
2022-09-25T12:04:12.686Z,2.50
2022-09-25T12:06:53.252Z,2.95
2022-09-25T12:09:51.937Z,2.38
2022-09-25T12:12:51.447Z,2.40
2022-09-25T12:15:31.538Z,2.33
2022-09-25T12:18:13.146Z,2.50
2022-09-25T12:21:01.699Z,2.00
2022-09-25T12:23:34.241Z,2.17
2022-09-25T12:26:16.399Z,2.08
2022-09-25T12:28:42.944Z,2.25
2022-09-25T12:31:39.503Z,1.75
2022-09-25T12:34:27.356Z,2.20
2022-09-25T12:37:09.143Z,1.40
2022-09-25T12:39:41.192Z,1.77
2022-09-25T12:42:17.761Z,1.45
2022-09-25T12:44:53.070Z,1.83
2022-09-25T12:50:03.781Z,1.40
2022-09-25T12:52:37.975Z,0.93
2022-09-25T12:55:32.187Z,1.55
2022-09-25T12:58:23.062Z,1.50
2022-09-25T13:00:55.174Z,0.90
2022-09-25T13:03:40.000Z,1.02
2022-09-25T13:06:27.071Z,1.05
2022-09-25T13:09:07.966Z,1.00
2022-09-25T13:11:51.734Z,1.13
2022-09-25T13:14:34.507Z,0.93
2022-09-25T13:17:01.772Z,1.05
2022-09-25T13:19:30.675Z,1.25
2022-09-25T13:22:25.040Z,1.40
2022-09-25T13:25:03.087Z,1.52
2022-09-25T13:27:40.351Z,1.10
2022-09-25T13:30:07.563Z,0.88
2022-09-25T13:32:38.206Z,1.10
2022-09-25T13:35:19.392Z,0.90
2022-09-25T13:37:48.184Z,0.90
2022-09-25T13:40:45.967Z,1.23
2022-09-25T13:43:21.139Z,0.90
2022-09-25T13:45:49.199Z,1.38
2022-09-25T13:48:34.152Z,0.85
2022-09-25T13:51:36.484Z,1.20
2022-09-25T13:54:08.965Z,0.80
2022-09-25T13:56:41.325Z,0.80
2022-09-25T13:59:13.676Z,0.73
2022-09-25T14:01:51.555Z,0.95
2022-09-25T14:04:29.301Z,1.00
2022-09-25T14:07:12.958Z,0.75
2022-09-25T14:09:44.768Z,0.77
2022-09-25T14:12:23.368Z,0.70
2022-09-25T14:15:06.049Z,1.10
2022-09-25T14:17:35.884Z,0.98
2022-09-25T14:20:07.209Z,0.80
2022-09-25T14:22:44.121Z,0.95
2022-09-25T14:25:46.676Z,1.10
2022-09-25T14:28:25.504Z,1.00
2022-09-25T14:30:57.380Z,0.90
2022-09-25T14:33:37.231Z,0.80
2022-09-25T14:36:22.309Z,1.00
2022-09-25T14:39:20.043Z,0.60
2022-09-25T14:41:54.397Z,0.90
2022-09-25T14:44:59.894Z,1.23
2022-09-25T14:47:33.705Z,1.10
2022-09-25T14:50:00.700Z,0.90
2022-09-25T14:52:32.901Z,0.80
2022-09-25T14:55:00.549Z,1.17
2022-09-25T14:57:30.974Z,0.82
2022-09-25T15:00:02.200Z,0.90
2022-09-25T15:02:34.133Z,1.02
2022-09-25T15:05:17.457Z,1.08
2022-09-25T15:07:46.292Z,1.42
2022-09-25T15:10:32.581Z,0.95
2022-09-25T15:13:19.044Z,0.98
2022-09-25T15:16:15.062Z,1.20
2022-09-25T15:18:51.189Z,1.15
2022-09-25T15:21:25.119Z,1.08
2022-09-25T15:23:54.460Z,1.17
2022-09-25T15:26:21.487Z,1.05
2022-09-25T15:28:48.754Z,1.13
2022-09-25T15:31:15.419Z,1.33
2022-09-25T15:33:42.153Z,0.90
2022-09-25T15:36:16.763Z,0.90
2022-09-25T15:38:44.449Z,1.00
2022-09-25T15:41:17.208Z,0.90
2022-09-25T15:43:44.777Z,1.15
2022-09-25T15:46:11.234Z,1.05
2022-09-25T15:48:50.361Z,1.17
2022-09-25T15:51:22.256Z,1.40
2022-09-25T15:53:57.127Z,1.35
2022-09-25T15:56:49.033Z,1.25
2022-09-25T15:59:23.984Z,1.13
2022-09-25T16:02:09.407Z,1.08
2022-09-25T16:07:23.295Z,1.10
2022-09-25T16:09:52.427Z,1.20
2022-09-25T16:12:50.565Z,1.13
2022-09-25T16:15:26.192Z,1.17
2022-09-25T16:18:02.892Z,1.40
2022-09-25T16:20:35.984Z,1.40
2022-09-25T16:23:16.615Z,1.30
2022-09-25T16:25:44.570Z,1.30
2022-09-25T16:28:24.274Z,1.17
2022-09-25T16:31:10.466Z,1.30
2022-09-25T16:33:41.193Z,1.02
2022-09-25T16:36:17.487Z,1.20
2022-09-25T16:39:03.842Z,1.05
2022-09-25T16:44:17.656Z,1.00
2022-09-25T16:46:56.548Z,1.10
2022-09-25T16:49:23.844Z,1.13
2022-09-25T16:51:53.961Z,1.13
2022-09-25T16:54:22.517Z,1.10
2022-09-25T16:56:49.269Z,1.50
2022-09-25T16:59:25.998Z,1.20
2022-09-25T17:01:55.891Z,1.02
2022-09-25T17:04:27.076Z,1.40
2022-09-25T17:06:57.883Z,1.13
2022-09-25T17:09:29.380Z,1.13
2022-09-25T17:12:05.084Z,1.92
2022-09-25T17:14:32.119Z,1.40
2022-09-25T17:16:58.982Z,1.30
2022-09-25T17:19:25.616Z,1.25
2022-09-25T17:21:53.446Z,1.30
2022-09-25T17:24:25.408Z,1.63
2022-09-25T17:26:52.627Z,1.17
2022-09-25T17:29:20.367Z,1.73
2022-09-25T17:31:46.857Z,1.13
2022-09-25T17:34:19.549Z,1.33
2022-09-25T17:36:46.087Z,1.30
2022-09-25T17:39:12.998Z,1.30
2022-09-25T17:41:40.344Z,1.50
2022-09-25T17:44:08.854Z,1.40
2022-09-25T17:46:36.160Z,1.23
2022-09-25T17:49:03.794Z,1.25
2022-09-25T17:51:30.635Z,1.40
2022-09-25T17:53:59.122Z,1.38
2022-09-25T17:56:29.600Z,1.35
2022-09-25T17:58:57.336Z,1.20
2022-09-25T18:01:27.291Z,1.30
2022-09-25T18:03:59.578Z,1.40
2022-09-25T18:06:28.286Z,1.38
2022-09-25T18:08:55.995Z,1.48
2022-09-25T18:11:24.441Z,1.30
2022-09-25T18:13:56.879Z,1.40
2022-09-25T18:16:29.870Z,1.50
2022-09-25T18:19:15.247Z,1.45
2022-09-25T18:22:00.209Z,1.40
2022-09-25T18:24:26.870Z,1.63
2022-09-25T18:26:55.031Z,1.45
2022-09-25T18:29:21.780Z,1.50
2022-09-25T18:31:48.805Z,1.65
2022-09-25T18:34:18.281Z,1.48
2022-09-25T18:36:45.312Z,1.55
2022-09-25T18:39:14.945Z,1.65
2022-09-25T18:41:45.587Z,1.80
2022-09-25T18:44:13.071Z,1.85
2022-09-25T18:46:39.712Z,1.80
2022-09-25T18:49:06.747Z,1.80
2022-09-25T18:51:34.065Z,1.58
2022-09-25T18:54:01.652Z,2.00
2022-09-25T18:56:28.257Z,2.08
2022-09-25T18:58:54.768Z,2.05
2022-09-25T19:01:21.303Z,2.65
2022-09-25T19:03:51.969Z,2.35
2022-09-25T19:06:18.909Z,2.15
2022-09-25T19:08:51.787Z,2.60
2022-09-25T19:11:18.702Z,2.60
2022-09-25T19:13:45.882Z,3.08
2022-09-25T19:16:12.346Z,2.90
2022-09-25T19:18:38.960Z,2.67
2022-09-25T19:21:05.467Z,2.40
2022-09-25T19:23:35.451Z,2.28
2022-09-25T19:26:04.956Z,3.00
2022-09-25T19:28:34.017Z,2.83
2022-09-25T19:31:13.671Z,3.05
2022-09-25T19:33:40.173Z,2.97
2022-09-25T19:36:10.185Z,4.05
2022-09-25T19:38:38.555Z,3.53
2022-09-25T19:41:18.099Z,2.97
2022-09-25T19:43:45.659Z,2.88
2022-09-25T19:46:14.860Z,3.05
2022-09-25T19:48:41.497Z,2.45
2022-09-25T19:51:09.438Z,2.33
2022-09-25T19:53:36.509Z,2.40
2022-09-25T19:56:03.549Z,2.13
2022-09-25T19:58:31.703Z,2.53
2022-09-25T20:00:58.310Z,4.25
2022-09-25T20:03:24.720Z,2.95
2022-09-25T20:05:51.409Z,2.65
2022-09-25T20:08:18.079Z,2.53
2022-09-25T20:10:44.713Z,2.70
2022-09-25T20:13:13.394Z,3.40
2022-09-25T20:15:41.357Z,3.55
2022-09-25T20:18:07.835Z,9.10
2022-09-25T20:20:34.276Z,6.32
2022-09-25T20:23:00.819Z,4.68
2022-09-25T20:25:28.015Z,3.35
2022-09-25T20:27:54.838Z,2.97
2022-09-25T20:30:24.701Z,2.95
2022-09-25T20:32:51.895Z,4.50
2022-09-25T20:35:19.726Z,4.70
2022-09-25T20:37:46.608Z,4.70
2022-09-25T20:40:14.868Z,4.47
2022-09-25T20:42:41.818Z,3.40
2022-09-25T20:45:10.027Z,2.38
2022-09-25T20:47:36.576Z,2.53
2022-09-25T20:50:04.792Z,2.70
2022-09-25T20:52:32.876Z,2.50
2022-09-25T20:54:59.766Z,2.40
2022-09-25T20:57:26.206Z,3.00
2022-09-25T20:59:52.628Z,2.65
2022-09-25T21:02:19.303Z,2.60
2022-09-25T21:04:45.741Z,2.72
2022-09-25T21:07:16.723Z,3.33
2022-09-25T21:09:43.641Z,2.95
2022-09-25T21:12:10.096Z,3.50
2022-09-25T21:14:37.010Z,3.33
2022-09-25T21:17:03.861Z,3.45
2022-09-25T21:19:31.690Z,3.42
2022-09-25T21:21:58.063Z,3.42
2022-09-25T21:24:24.500Z,5.20
2022-09-25T21:26:51.251Z,4.03
2022-09-25T21:29:18.187Z,3.70
2022-09-25T21:31:49.737Z,3.25
2022-09-25T21:34:19.739Z,3.05
2022-09-25T21:36:46.333Z,2.83
2022-09-25T21:39:13.387Z,3.08
2022-09-25T21:41:40.395Z,3.22
2022-09-25T21:44:13.528Z,3.38
2022-09-25T21:46:40.698Z,3.10
2022-09-25T21:49:08.364Z,3.10
2022-09-25T21:51:42.543Z,3.05
2022-09-25T21:54:10.344Z,2.75
2022-09-25T21:56:36.852Z,2.70
2022-09-25T21:59:08.862Z,2.67
2022-09-25T22:01:38.255Z,2.40
2022-09-25T22:04:05.590Z,3.17
2022-09-25T22:06:37.773Z,3.08
2022-09-25T22:09:10.948Z,3.40
2022-09-25T22:11:38.449Z,3.50
2022-09-25T22:14:05.747Z,3.15
2022-09-25T22:16:35.403Z,3.03
2022-09-25T22:19:08.127Z,3.22
2022-09-25T22:21:35.727Z,2.90
2022-09-25T22:24:02.857Z,2.50
2022-09-25T22:26:30.975Z,2.72
2022-09-25T22:28:57.511Z,3.25
2022-09-25T22:31:26.867Z,2.80
2022-09-25T22:33:56.261Z,2.60
2022-09-25T22:36:23.013Z,2.80
2022-09-25T22:38:49.506Z,2.80
2022-09-25T22:41:16.025Z,3.10
2022-09-25T22:43:42.762Z,3.58
2022-09-25T22:46:11.322Z,3.40
2022-09-25T22:48:38.578Z,3.83
2022-09-25T22:51:07.522Z,2.83
2022-09-25T22:53:35.248Z,3.25
2022-09-25T22:56:29.052Z,2.80
2022-09-25T22:59:01.269Z,3.15
2022-09-25T23:02:01.429Z,2.67
2022-09-25T23:04:27.932Z,2.65
2022-09-25T23:06:54.523Z,2.53
2022-09-25T23:09:24.850Z,2.90
2022-09-25T23:11:52.913Z,2.75
2022-09-25T23:14:22.525Z,2.95
2022-09-25T23:16:51.097Z,2.55
2022-09-25T23:19:18.432Z,3.15
2022-09-25T23:21:48.172Z,2.20
2022-09-25T23:24:17.761Z,3.25
2022-09-25T23:26:45.445Z,3.40
2022-09-25T23:29:14.548Z,3.33
2022-09-25T23:31:42.217Z,2.92
2022-09-25T23:34:09.395Z,3.08
2022-09-25T23:36:36.585Z,3.00
2022-09-25T23:39:04.287Z,2.75
2022-09-25T23:41:34.206Z,3.10
2022-09-25T23:44:02.610Z,3.72
2022-09-25T23:46:31.974Z,3.40
2022-09-25T23:48:59.518Z,3.35
2022-09-25T23:51:27.171Z,3.33
2022-09-25T23:53:55.618Z,3.33
2022-09-25T23:56:25.006Z,3.03
2022-09-25T23:58:52.390Z,2.40
